Orient, Ohio
Current Conditions -  °F | °C
As of 2:55 AM on Sunday 26 Oct 2014 (Local Time) from KTZR Reporting Station
Clear Clear  
Wind Chill: 52°   Ceiling: Unl
Heat Index: 52°   Visibility: 10mi
Dew Point: 40°   Wind: 7mph
Humidity: 64%   Direction: 290°WNW
Pressure: 29.91"   Gusts: NA
Location:  39.8°N, 83.15°W
Report Text: KTZR 260655Z AUTO 29006KT 10SM CLR 11/05 A2991 RMK AO2 T01120045
Loading
Personal Weather Stations






























Interactive Weather Map
Tropical Storm Tracking
New forecast layout! Learn more

10-Day Weather Forecast

Advertisements
Track Severe Weather on mobile